createdAt,value
2023-04-17T00:00:29.422Z,0.00
2023-04-17T00:01:29.383Z,0.00
2023-04-17T00:02:29.467Z,0.00
2023-04-17T00:03:29.407Z,0.00
2023-04-17T00:04:29.396Z,0.00
2023-04-17T00:05:29.264Z,0.00
2023-04-17T00:06:29.197Z,0.00
2023-04-17T00:07:29.168Z,0.00
2023-04-17T00:08:29.129Z,0.00
2023-04-17T00:09:29.089Z,0.00
2023-04-17T00:10:29.064Z,0.00
2023-04-17T00:11:29.036Z,0.00
2023-04-17T00:12:28.987Z,0.00
2023-04-17T00:13:28.950Z,0.00
2023-04-17T00:14:28.915Z,0.00
2023-04-17T00:15:28.872Z,0.00
2023-04-17T00:16:28.857Z,0.00
2023-04-17T00:17:28.811Z,0.00
2023-04-17T00:18:28.769Z,0.00
2023-04-17T00:19:28.733Z,0.00
2023-04-17T00:20:28.699Z,0.00
2023-04-17T00:21:28.662Z,0.00
2023-04-17T00:22:28.630Z,0.00
2023-04-17T00:23:28.582Z,0.00
2023-04-17T00:24:28.559Z,0.00
2023-04-17T00:25:28.512Z,0.00
2023-04-17T00:26:28.479Z,0.00
2023-04-17T00:27:28.437Z,0.00
2023-04-17T00:28:28.413Z,0.00
2023-04-17T00:29:28.371Z,0.00
2023-04-17T00:30:28.334Z,0.00
2023-04-17T00:31:28.309Z,0.00
2023-04-17T00:32:28.324Z,0.00
2023-04-17T00:33:28.239Z,0.00
2023-04-17T00:34:28.193Z,0.00
2023-04-17T00:35:28.163Z,0.00
2023-04-17T00:36:28.119Z,0.00
2023-04-17T00:37:28.096Z,0.00
2023-04-17T00:38:28.049Z,0.00
2023-04-17T00:39:28.017Z,0.00
2023-04-17T00:40:27.979Z,0.00
2023-04-17T00:41:27.961Z,0.00
2023-04-17T00:42:27.906Z,0.00
2023-04-17T00:43:27.873Z,0.00
2023-04-17T00:44:27.840Z,0.00
2023-04-17T00:45:27.810Z,0.00
2023-04-17T00:46:27.761Z,0.00
2023-04-17T00:47:27.760Z,0.00
2023-04-17T00:48:27.690Z,0.00
2023-04-17T00:49:27.669Z,0.00
2023-04-17T00:50:27.626Z,0.00
2023-04-17T00:51:27.587Z,0.00
2023-04-17T00:52:27.550Z,0.00
2023-04-17T00:53:27.518Z,0.00
2023-04-17T00:54:27.499Z,0.00
2023-04-17T00:55:27.457Z,0.00
2023-04-17T00:56:27.404Z,0.00
2023-04-17T00:57:27.371Z,0.00
2023-04-17T00:58:27.325Z,0.00
2023-04-17T00:59:27.296Z,0.00
2023-04-17T01:00:27.266Z,0.00
2023-04-17T01:01:27.330Z,0.00
2023-04-17T01:02:27.396Z,0.00
2023-04-17T01:03:27.270Z,0.00
2023-04-17T01:04:27.196Z,0.00
2023-04-17T01:05:27.081Z,0.00
2023-04-17T01:06:27.069Z,0.00
2023-04-17T01:07:27.009Z,0.00
2023-04-17T01:08:26.990Z,0.00
2023-04-17T01:09:26.935Z,0.00
2023-04-17T01:10:26.901Z,0.00
2023-04-17T01:11:26.862Z,0.00
2023-04-17T01:12:26.837Z,0.00
2023-04-17T01:13:26.815Z,0.00
2023-04-17T01:14:26.755Z,0.00
2023-04-17T01:15:26.724Z,0.00
2023-04-17T01:16:26.855Z,0.00
2023-04-17T01:17:26.669Z,0.00
2023-04-17T01:18:26.617Z,0.00
2023-04-17T01:19:26.584Z,0.00
2023-04-17T01:20:26.546Z,0.00
2023-04-17T01:21:26.504Z,0.00
2023-04-17T01:22:26.487Z,0.00
2023-04-17T01:23:26.444Z,0.00
2023-04-17T01:24:26.398Z,0.00
2023-04-17T01:25:26.371Z,0.00
2023-04-17T01:26:26.329Z,0.00
2023-04-17T01:27:26.295Z,0.00
2023-04-17T01:28:26.256Z,0.00
2023-04-17T01:29:26.218Z,0.00
2023-04-17T01:30:26.182Z,0.00
2023-04-17T01:31:26.255Z,0.00
2023-04-17T01:32:26.173Z,0.00
2023-04-17T01:33:26.080Z,0.00
2023-04-17T01:34:26.044Z,0.00
2023-04-17T01:35:26.007Z,0.00
2023-04-17T01:36:25.969Z,0.00
2023-04-17T01:37:25.935Z,0.00
2023-04-17T01:38:25.896Z,0.00
2023-04-17T01:39:25.865Z,0.00
2023-04-17T01:40:25.843Z,0.00
2023-04-17T01:41:25.792Z,0.00
2023-04-17T01:42:25.747Z,0.00
2023-04-17T01:43:25.716Z,0.00
2023-04-17T01:44:25.685Z,0.00
2023-04-17T01:45:25.645Z,0.00
2023-04-17T01:46:25.644Z,0.00
2023-04-17T01:47:25.649Z,0.00
2023-04-17T01:48:25.536Z,0.00
2023-04-17T01:49:25.503Z,0.00
2023-04-17T01:50:25.478Z,0.00
2023-04-17T01:51:25.434Z,0.00
2023-04-17T01:52:25.409Z,0.00
2023-04-17T01:53:25.358Z,0.00
2023-04-17T01:54:25.324Z,0.00
2023-04-17T01:55:25.382Z,0.00
2023-04-17T01:56:25.248Z,0.00
2023-04-17T01:57:25.227Z,0.00
2023-04-17T01:58:25.178Z,0.00
2023-04-17T01:59:25.140Z,0.00
2023-04-17T02:00:25.110Z,0.00
2023-04-17T02:01:25.086Z,0.00
2023-04-17T02:02:25.118Z,0.00
2023-04-17T02:03:25.156Z,0.00
2023-04-17T02:04:25.095Z,0.00
2023-04-17T02:05:24.928Z,0.00
2023-04-17T02:06:24.898Z,0.00
2023-04-17T02:07:24.864Z,0.00
2023-04-17T02:08:24.839Z,0.00
2023-04-17T02:09:24.785Z,0.00
2023-04-17T02:10:24.746Z,0.00
2023-04-17T02:11:24.711Z,0.00
2023-04-17T02:12:24.678Z,0.00
2023-04-17T02:13:24.642Z,0.00
2023-04-17T02:14:24.605Z,0.00
2023-04-17T02:15:24.569Z,0.00
2023-04-17T02:16:24.574Z,0.00
2023-04-17T02:17:24.544Z,0.00
2023-04-17T02:18:24.464Z,0.00
2023-04-17T02:19:24.448Z,0.00
2023-04-17T02:20:24.448Z,0.00
2023-04-17T02:21:24.353Z,0.00
2023-04-17T02:22:24.376Z,0.00
2023-04-17T02:23:24.275Z,0.00
2023-04-17T02:24:24.247Z,0.00
2023-04-17T02:25:24.213Z,0.00
2023-04-17T02:26:24.183Z,0.00
2023-04-17T02:27:24.278Z,0.00
2023-04-17T02:28:24.106Z,0.00
2023-04-17T02:29:24.066Z,0.00
2023-04-17T02:30:24.033Z,0.00
2023-04-17T02:31:24.048Z,0.00
2023-04-17T02:32:24.029Z,0.00
2023-04-17T02:33:23.929Z,0.00
2023-04-17T02:34:23.889Z,0.00
2023-04-17T02:35:23.852Z,0.00
2023-04-17T02:36:23.817Z,0.00
2023-04-17T02:37:23.778Z,0.00
2023-04-17T02:38:23.739Z,0.00
2023-04-17T02:39:23.730Z,0.00
2023-04-17T02:40:23.679Z,0.00
2023-04-17T02:41:23.648Z,0.00
2023-04-17T02:42:23.595Z,0.00
2023-04-17T02:43:23.567Z,0.00
2023-04-17T02:44:23.530Z,0.00
2023-04-17T02:45:23.494Z,0.00
2023-04-17T02:46:23.471Z,0.00
2023-04-17T02:47:23.432Z,0.00
2023-04-17T02:48:23.384Z,0.00
2023-04-17T02:49:23.354Z,0.00
2023-04-17T02:50:23.309Z,0.00
2023-04-17T02:51:23.275Z,0.00
2023-04-17T02:52:23.241Z,0.00
2023-04-17T02:53:23.212Z,0.00
2023-04-17T02:54:23.173Z,0.00
2023-04-17T02:55:23.135Z,0.00
2023-04-17T02:56:23.098Z,0.00
2023-04-17T02:57:23.099Z,0.00
2023-04-17T02:58:23.039Z,0.00
2023-04-17T02:59:22.996Z,0.00
2023-04-17T03:00:22.976Z,0.00
2023-04-17T03:01:22.956Z,0.00
2023-04-17T03:02:22.971Z,0.00
2023-04-17T03:03:23.000Z,0.00
2023-04-17T03:04:22.862Z,0.00
2023-04-17T03:05:22.787Z,0.00
2023-04-17T03:06:22.746Z,0.00
2023-04-17T03:07:22.708Z,0.00
2023-04-17T03:08:22.674Z,0.00
2023-04-17T03:09:22.659Z,0.00
2023-04-17T03:10:22.599Z,0.00
2023-04-17T03:11:22.563Z,0.00
2023-04-17T03:12:22.529Z,0.00
2023-04-17T03:13:22.491Z,0.00
2023-04-17T03:14:22.458Z,0.00
2023-04-17T03:15:22.424Z,0.00
2023-04-17T03:16:22.421Z,0.00
2023-04-17T03:17:22.418Z,0.00
2023-04-17T03:18:22.309Z,0.00
2023-04-17T03:19:22.274Z,0.00
2023-04-17T03:20:22.239Z,0.00
2023-04-17T03:21:22.233Z,0.00
2023-04-17T03:22:22.172Z,0.00
2023-04-17T03:23:22.134Z,0.00
2023-04-17T03:24:22.096Z,0.00
2023-04-17T03:25:22.066Z,0.00
2023-04-17T03:26:22.026Z,0.00
2023-04-17T03:27:21.987Z,0.00
2023-04-17T03:28:22.104Z,0.00
2023-04-17T03:29:21.916Z,0.00
2023-04-17T03:30:21.883Z,0.00
2023-04-17T03:31:24.207Z,0.00
2023-04-17T03:32:21.837Z,0.00
2023-04-17T03:33:21.774Z,0.00
2023-04-17T03:34:21.755Z,0.00
2023-04-17T03:35:21.707Z,0.00
2023-04-17T03:36:21.672Z,0.00
2023-04-17T03:37:21.629Z,0.00
2023-04-17T03:38:21.601Z,0.00
2023-04-17T03:39:21.561Z,0.00
2023-04-17T03:40:21.521Z,0.00
2023-04-17T03:41:21.500Z,0.00
2023-04-17T03:42:21.468Z,0.00
2023-04-17T03:43:21.423Z,0.00
2023-04-17T03:44:21.390Z,0.00
2023-04-17T03:45:21.342Z,0.00
2023-04-17T03:46:21.347Z,0.00
2023-04-17T03:47:21.298Z,0.00
2023-04-17T03:48:21.233Z,0.00
2023-04-17T03:49:21.200Z,0.00
2023-04-17T03:50:21.166Z,0.00
2023-04-17T03:51:21.134Z,0.00
2023-04-17T03:52:21.097Z,0.00
2023-04-17T03:53:21.065Z,0.00
2023-04-17T03:54:21.027Z,0.00
2023-04-17T03:55:20.994Z,0.00
2023-04-17T03:56:20.945Z,0.00
2023-04-17T03:57:20.916Z,0.00
2023-04-17T03:58:20.879Z,0.00
2023-04-17T03:59:20.834Z,0.00
2023-04-17T04:00:20.795Z,0.00
2023-04-17T04:01:20.777Z,0.00
2023-04-17T04:02:20.817Z,0.00
2023-04-17T04:03:20.844Z,0.00
2023-04-17T04:04:20.764Z,0.00
2023-04-17T04:05:20.682Z,0.00
2023-04-17T04:06:20.581Z,0.00
2023-04-17T04:07:20.546Z,0.00
2023-04-17T04:08:20.510Z,0.00
2023-04-17T04:09:20.470Z,0.00
2023-04-17T04:10:20.436Z,0.00
2023-04-17T04:11:20.403Z,0.00
2023-04-17T04:12:20.369Z,0.00
2023-04-17T04:13:20.332Z,0.00
2023-04-17T04:14:20.290Z,0.00
2023-04-17T04:15:20.256Z,0.00
2023-04-17T04:16:20.292Z,0.00
2023-04-17T04:17:20.201Z,0.00
2023-04-17T04:18:20.147Z,0.00
2023-04-17T04:19:20.119Z,0.00
2023-04-17T04:20:20.073Z,0.00
2023-04-17T04:21:20.041Z,0.00
2023-04-17T04:22:20.001Z,0.00
2023-04-17T04:23:19.968Z,4.00
2023-04-17T04:24:19.930Z,4.00
2023-04-17T04:25:19.910Z,4.00
2023-04-17T04:26:19.856Z,4.00
2023-04-17T04:27:19.829Z,0.00
2023-04-17T04:28:19.787Z,4.00
2023-04-17T04:29:19.777Z,4.00
2023-04-17T04:30:19.719Z,8.00
2023-04-17T04:31:19.768Z,4.00
2023-04-17T04:32:19.661Z,8.00
2023-04-17T04:33:19.613Z,8.00
2023-04-17T04:34:19.577Z,8.00
2023-04-17T04:35:19.550Z,8.00
2023-04-17T04:36:19.504Z,8.00
2023-04-17T04:37:19.474Z,8.00
2023-04-17T04:38:19.440Z,12.00
2023-04-17T04:39:19.397Z,12.00
2023-04-17T04:40:19.362Z,12.00
2023-04-17T04:41:19.330Z,16.00
2023-04-17T04:42:19.299Z,16.00
2023-04-17T04:43:22.207Z,12.00
2023-04-17T04:44:19.213Z,16.00
2023-04-17T04:45:19.185Z,24.00
2023-04-17T04:46:19.190Z,20.00
2023-04-17T04:47:19.140Z,24.00
2023-04-17T04:48:19.088Z,28.00
2023-04-17T04:49:19.066Z,24.00
2023-04-17T04:50:19.010Z,24.00
2023-04-17T04:51:19.115Z,28.00
2023-04-17T04:52:18.930Z,28.00
2023-04-17T04:53:18.895Z,40.00
2023-04-17T04:54:18.858Z,40.00
2023-04-17T04:55:18.822Z,44.00
2023-04-17T04:56:18.819Z,44.00
2023-04-17T04:57:18.753Z,44.00
2023-04-17T04:58:18.721Z,44.00
2023-04-17T04:59:18.680Z,48.00
2023-04-17T05:00:18.644Z,56.00
2023-04-17T05:01:18.709Z,60.00
2023-04-17T05:02:18.722Z,64.00
2023-04-17T05:03:18.709Z,68.00
2023-04-17T05:04:18.560Z,64.00
2023-04-17T05:05:18.473Z,64.00
2023-04-17T05:06:18.429Z,64.00
2023-04-17T05:07:18.409Z,68.00
2023-04-17T05:08:18.363Z,84.00
2023-04-17T05:09:18.621Z,92.00
2023-04-17T05:10:18.291Z,92.00
2023-04-17T05:11:18.252Z,92.00
2023-04-17T05:12:18.223Z,88.00
2023-04-17T05:13:18.186Z,88.00
2023-04-17T05:14:18.146Z,100.00
2023-04-17T05:15:18.107Z,100.00
2023-04-17T05:16:18.103Z,96.00
2023-04-17T05:17:18.068Z,104.00
2023-04-17T05:18:18.009Z,116.00
2023-04-17T05:19:17.967Z,120.00
2023-04-17T05:20:17.930Z,128.00
2023-04-17T05:21:17.907Z,136.00
2023-04-17T05:22:17.858Z,132.00
2023-04-17T05:23:17.825Z,116.00
2023-04-17T05:24:17.798Z,128.00
2023-04-17T05:25:17.756Z,140.00
2023-04-17T05:26:17.729Z,136.00
2023-04-17T05:27:17.682Z,132.00
2023-04-17T05:28:17.653Z,136.00
2023-04-17T05:29:17.606Z,140.00
2023-04-17T05:30:17.570Z,148.00
2023-04-17T05:31:17.568Z,152.00
2023-04-17T05:32:17.500Z,152.00
2023-04-17T05:33:17.473Z,144.00
2023-04-17T05:34:17.433Z,144.00
2023-04-17T05:35:17.394Z,144.00
2023-04-17T05:36:17.368Z,144.00
2023-04-17T05:37:17.324Z,152.00
2023-04-17T05:38:17.284Z,172.00
2023-04-17T05:39:17.250Z,188.00
2023-04-17T05:40:17.220Z,208.00
2023-04-17T05:41:17.172Z,220.00
2023-04-17T05:42:17.135Z,232.00
2023-04-17T05:43:17.145Z,240.00
2023-04-17T05:44:17.070Z,244.00
2023-04-17T05:45:17.028Z,252.00
2023-04-17T05:46:17.015Z,276.00
2023-04-17T05:47:16.987Z,284.00
2023-04-17T05:48:16.921Z,288.00
2023-04-17T05:49:16.892Z,308.00
2023-04-17T05:50:16.856Z,340.00
2023-04-17T05:51:16.815Z,372.00
2023-04-17T05:52:16.779Z,380.00
2023-04-17T05:53:16.746Z,388.00
2023-04-17T05:54:16.703Z,416.00
2023-04-17T05:55:16.683Z,424.00
2023-04-17T05:56:16.639Z,428.00
2023-04-17T05:57:16.598Z,440.00
2023-04-17T05:58:23.648Z,456.00
2023-04-17T05:59:16.536Z,456.00
2023-04-17T06:00:16.509Z,452.00
2023-04-17T06:01:16.459Z,448.00
2023-04-17T06:02:16.510Z,436.00
2023-04-17T06:03:18.299Z,428.00
2023-04-17T06:04:18.071Z,432.00
2023-04-17T06:05:16.406Z,452.00
2023-04-17T06:06:16.295Z,472.00
2023-04-17T06:07:16.257Z,496.00
2023-04-17T06:08:16.238Z,520.00
2023-04-17T06:09:16.177Z,532.00
2023-04-17T06:10:16.161Z,532.00
2023-04-17T06:11:16.101Z,544.00
2023-04-17T06:12:16.117Z,564.00
2023-04-17T06:13:16.037Z,572.00
2023-04-17T06:14:16.002Z,576.00
2023-04-17T06:15:15.954Z,580.00
2023-04-17T06:16:15.979Z,592.00
2023-04-17T06:17:16.001Z,600.00
2023-04-17T06:18:15.844Z,604.00
2023-04-17T06:19:15.811Z,600.00
2023-04-17T06:20:15.780Z,592.00
2023-04-17T06:21:15.758Z,576.00
2023-04-17T06:22:15.708Z,584.00
2023-04-17T06:23:15.708Z,592.00
2023-04-17T06:24:15.678Z,596.00
2023-04-17T06:25:15.644Z,592.00
2023-04-17T06:26:15.568Z,588.00
2023-04-17T06:27:15.532Z,576.00
2023-04-17T06:28:15.498Z,560.00
2023-04-17T06:29:15.516Z,556.00
2023-04-17T06:30:15.430Z,556.00
2023-04-17T06:31:15.439Z,548.00
2023-04-17T06:32:15.349Z,536.00
2023-04-17T06:33:15.324Z,512.00
2023-04-17T06:34:15.275Z,492.00
2023-04-17T06:35:15.249Z,480.00
2023-04-17T06:36:15.208Z,460.00
2023-04-17T06:37:15.174Z,432.00
2023-04-17T06:38:15.175Z,420.00
2023-04-17T06:39:15.101Z,416.00
2023-04-17T06:40:15.057Z,416.00
2023-04-17T06:41:15.028Z,412.00
2023-04-17T06:42:14.992Z,396.00
2023-04-17T06:43:14.954Z,376.00
2023-04-17T06:44:14.929Z,352.00
2023-04-17T06:45:14.885Z,332.00
2023-04-17T06:46:14.918Z,312.00
2023-04-17T06:47:14.831Z,300.00
2023-04-17T06:48:14.782Z,288.00
2023-04-17T06:49:14.995Z,272.00
2023-04-17T06:50:14.720Z,272.00
2023-04-17T06:51:14.670Z,276.00
2023-04-17T06:52:14.662Z,304.00
2023-04-17T06:53:14.609Z,332.00
2023-04-17T06:54:14.612Z,368.00
2023-04-17T06:55:14.524Z,388.00
2023-04-17T06:56:14.490Z,428.00
2023-04-17T06:57:14.458Z,476.00
2023-04-17T06:58:14.434Z,540.00
2023-04-17T06:59:14.410Z,608.00
2023-04-17T07:00:14.364Z,680.00
2023-04-17T07:01:14.339Z,740.00
2023-04-17T07:02:14.497Z,796.00
2023-04-17T07:03:14.302Z,844.00
2023-04-17T07:04:14.235Z,916.00
2023-04-17T07:05:14.208Z,976.00
2023-04-17T07:06:14.143Z,1032.00
2023-04-17T07:07:14.099Z,1064.00
2023-04-17T07:08:14.063Z,1104.00
2023-04-17T07:09:14.142Z,1192.00
2023-04-17T07:10:13.992Z,1180.00
2023-04-17T07:11:13.952Z,1124.00
2023-04-17T07:12:13.923Z,1064.00
2023-04-17T07:13:13.881Z,1008.00
2023-04-17T07:14:13.845Z,984.00
2023-04-17T07:15:13.826Z,952.00
2023-04-17T07:16:13.837Z,940.00
2023-04-17T07:17:13.735Z,952.00
2023-04-17T07:18:13.706Z,960.00
2023-04-17T07:19:14.060Z,960.00
2023-04-17T07:20:13.641Z,956.00
2023-04-17T07:21:13.602Z,948.00
2023-04-17T07:22:13.557Z,932.00
2023-04-17T07:23:13.524Z,900.00
2023-04-17T07:24:13.487Z,844.00
2023-04-17T07:25:13.448Z,880.00
2023-04-17T07:26:13.424Z,888.00
2023-04-17T07:27:13.388Z,864.00
2023-04-17T07:28:13.346Z,844.00
2023-04-17T07:29:13.642Z,852.00
2023-04-17T07:30:13.281Z,924.00
2023-04-17T07:31:13.482Z,972.00
2023-04-17T07:32:13.208Z,936.00
2023-04-17T07:33:13.195Z,864.00
2023-04-17T07:34:13.135Z,784.00
2023-04-17T07:35:13.099Z,824.00
2023-04-17T07:36:13.065Z,912.00
2023-04-17T07:37:13.024Z,932.00
2023-04-17T07:38:13.002Z,908.00
2023-04-17T07:39:13.109Z,808.00
2023-04-17T07:40:13.905Z,796.00
2023-04-17T07:41:12.911Z,796.00
2023-04-17T07:42:12.853Z,852.00
2023-04-17T07:43:12.817Z,920.00
2023-04-17T07:44:12.806Z,956.00
2023-04-17T07:45:12.746Z,920.00
2023-04-17T07:46:12.703Z,908.00
2023-04-17T07:47:12.828Z,916.00
2023-04-17T07:48:12.677Z,948.00
2023-04-17T07:49:12.768Z,900.00
2023-04-17T07:50:12.579Z,824.00
2023-04-17T07:51:12.530Z,908.00
2023-04-17T07:52:12.498Z,928.00
2023-04-17T07:53:12.477Z,948.00
2023-04-17T07:54:12.428Z,916.00
2023-04-17T07:55:12.406Z,896.00
2023-04-17T07:56:12.760Z,860.00
2023-04-17T07:57:12.328Z,828.00
2023-04-17T07:58:12.278Z,744.00
2023-04-17T07:59:12.337Z,812.00
2023-04-17T08:00:12.213Z,896.00
2023-04-17T08:01:12.209Z,900.00
2023-04-17T08:02:12.315Z,884.00
2023-04-17T08:03:12.284Z,896.00
2023-04-17T08:04:12.386Z,856.00
2023-04-17T08:05:12.125Z,816.00
2023-04-17T08:06:12.016Z,832.00
2023-04-17T08:07:11.971Z,852.00
2023-04-17T08:08:11.928Z,884.00
2023-04-17T08:09:12.038Z,908.00
2023-04-17T08:10:11.872Z,900.00
2023-04-17T08:11:11.824Z,832.00
2023-04-17T08:12:11.788Z,772.00
2023-04-17T08:13:11.752Z,828.00
2023-04-17T08:14:11.724Z,920.00
2023-04-17T08:15:11.696Z,1044.00
2023-04-17T08:16:11.698Z,1132.00
2023-04-17T08:17:11.688Z,1044.00
2023-04-17T08:18:11.631Z,1040.00
2023-04-17T08:19:11.667Z,1108.00
2023-04-17T08:20:11.522Z,1148.00
2023-04-17T08:21:11.482Z,1152.00
2023-04-17T08:22:11.450Z,1164.00
2023-04-17T08:23:11.406Z,1212.00
2023-04-17T08:24:11.362Z,1260.00
2023-04-17T08:25:11.380Z,1276.00
2023-04-17T08:26:11.295Z,1164.00
2023-04-17T08:27:11.292Z,1052.00
2023-04-17T08:28:11.227Z,1064.00
2023-04-17T08:29:11.629Z,1160.00
2023-04-17T08:30:13.028Z,1164.00
2023-04-17T08:31:11.158Z,1076.00
2023-04-17T08:32:15.255Z,1048.00
2023-04-17T08:33:11.048Z,1076.00
2023-04-17T08:34:14.751Z,1128.00
2023-04-17T08:35:11.006Z,1144.00
2023-04-17T08:36:11.050Z,1100.00
2023-04-17T08:37:10.917Z,1084.00
2023-04-17T08:38:10.873Z,1128.00
2023-04-17T08:39:11.190Z,1076.00
2023-04-17T08:40:10.829Z,960.00
2023-04-17T08:41:10.771Z,908.00
2023-04-17T08:42:13.286Z,940.00
2023-04-17T08:43:10.702Z,964.00
2023-04-17T08:44:10.678Z,1016.00
2023-04-17T08:45:10.658Z,1000.00
2023-04-17T08:46:10.646Z,984.00
2023-04-17T08:47:10.564Z,1032.00
2023-04-17T08:48:10.531Z,1068.00
2023-04-17T08:49:10.900Z,1076.00
2023-04-17T08:50:10.455Z,1124.00
2023-04-17T08:51:10.422Z,1172.00
2023-04-17T08:52:10.381Z,1108.00
2023-04-17T08:53:10.346Z,908.00
2023-04-17T08:54:10.313Z,840.00
2023-04-17T08:55:10.280Z,884.00
2023-04-17T08:56:10.244Z,1032.00
2023-04-17T08:57:10.210Z,1052.00
2023-04-17T08:58:10.173Z,1276.00
2023-04-17T08:59:10.254Z,1548.00
2023-04-17T09:00:10.103Z,1692.00
2023-04-17T09:01:10.145Z,1680.00
2023-04-17T09:02:10.107Z,1596.00
2023-04-17T09:03:10.132Z,1604.00
2023-04-17T09:04:10.195Z,1740.00
2023-04-17T09:05:09.925Z,1972.00
2023-04-17T09:06:09.892Z,2088.00
2023-04-17T09:07:09.971Z,1940.00
2023-04-17T09:08:09.834Z,1628.00
2023-04-17T09:09:09.967Z,1416.00
2023-04-17T09:10:09.761Z,1336.00
2023-04-17T09:11:09.724Z,1372.00
2023-04-17T09:12:09.692Z,1380.00
2023-04-17T09:13:09.655Z,1348.00
2023-04-17T09:14:09.616Z,1376.00
2023-04-17T09:15:09.582Z,1512.00
2023-04-17T09:16:09.590Z,1716.00
2023-04-17T09:17:09.511Z,1880.00
2023-04-17T09:18:09.506Z,1972.00
2023-04-17T09:19:09.580Z,1912.00
2023-04-17T09:20:09.492Z,1792.00
2023-04-17T09:21:09.372Z,1660.00
2023-04-17T09:22:09.339Z,1568.00
2023-04-17T09:23:09.315Z,1560.00
2023-04-17T09:24:09.270Z,1492.00
2023-04-17T09:25:09.233Z,1408.00
2023-04-17T09:26:09.237Z,1328.00
2023-04-17T09:27:09.168Z,1284.00
2023-04-17T09:28:09.133Z,1320.00
2023-04-17T09:29:09.431Z,1392.00
2023-04-17T09:30:09.076Z,1376.00
2023-04-17T09:31:09.888Z,1264.00
2023-04-17T09:32:08.998Z,1164.00
2023-04-17T09:33:08.969Z,1164.00
2023-04-17T09:34:08.918Z,1200.00
2023-04-17T09:35:08.915Z,1348.00
2023-04-17T09:36:08.852Z,1524.00
2023-04-17T09:37:08.816Z,1520.00
2023-04-17T09:38:08.819Z,1464.00
2023-04-17T09:39:08.772Z,1464.00
2023-04-17T09:40:08.721Z,1472.00
2023-04-17T09:41:08.695Z,1496.00
2023-04-17T09:42:08.647Z,1592.00
2023-04-17T09:43:09.914Z,1684.00
2023-04-17T09:44:08.577Z,1656.00
2023-04-17T09:45:08.546Z,1588.00
2023-04-17T09:46:08.530Z,1588.00
2023-04-17T09:47:08.540Z,1568.00
2023-04-17T09:48:08.537Z,1636.00
2023-04-17T09:49:08.406Z,1756.00
2023-04-17T09:50:08.376Z,1880.00
2023-04-17T09:51:08.341Z,2012.00
2023-04-17T09:52:08.341Z,2036.00
2023-04-17T09:53:08.324Z,2128.00
2023-04-17T09:54:08.254Z,2308.00
2023-04-17T09:55:08.200Z,2556.00
2023-04-17T09:56:08.170Z,2652.00
2023-04-17T09:57:08.137Z,2508.00
2023-04-17T09:58:08.176Z,2532.00
2023-04-17T09:59:08.071Z,2644.00
2023-04-17T10:00:08.031Z,2672.00
2023-04-17T10:01:08.014Z,2748.00
2023-04-17T10:02:08.104Z,2712.00
2023-04-17T10:03:08.254Z,2844.00
2023-04-17T10:04:08.050Z,2916.00
2023-04-17T10:05:07.853Z,2936.00
2023-04-17T10:06:07.842Z,2952.00
2023-04-17T10:07:07.783Z,3024.00
2023-04-17T10:08:07.746Z,3052.00
2023-04-17T10:09:07.713Z,2996.00
2023-04-17T10:10:07.679Z,2756.00
2023-04-17T10:11:07.674Z,2564.00
2023-04-17T10:12:07.624Z,2732.00
2023-04-17T10:13:07.594Z,2772.00
2023-04-17T10:14:07.542Z,2728.00
2023-04-17T10:15:07.505Z,2648.00
2023-04-17T10:16:07.529Z,2384.00
2023-04-17T10:17:07.445Z,2368.00
2023-04-17T10:18:07.435Z,2484.00
2023-04-17T10:19:07.374Z,2604.00
2023-04-17T10:20:07.341Z,2684.00
2023-04-17T10:21:07.936Z,2708.00
2023-04-17T10:22:07.271Z,2752.00
2023-04-17T10:23:07.249Z,2916.00
2023-04-17T10:24:07.221Z,3120.00
2023-04-17T10:25:07.292Z,3176.00
2023-04-17T10:26:07.150Z,3428.00
2023-04-17T10:27:08.198Z,3412.00
2023-04-17T10:28:07.068Z,3116.00
2023-04-17T10:29:07.112Z,3012.00
2023-04-17T10:30:07.036Z,2864.00
2023-04-17T10:31:06.977Z,2480.00
2023-04-17T10:32:06.955Z,2372.00
2023-04-17T10:33:08.481Z,2152.00
2023-04-17T10:34:06.874Z,2140.00
2023-04-17T10:35:06.840Z,2440.00
2023-04-17T10:36:06.802Z,2512.00
2023-04-17T10:37:06.778Z,2896.00
2023-04-17T10:38:06.749Z,3208.00
2023-04-17T10:39:06.702Z,3320.00
2023-04-17T10:40:06.680Z,3428.00
2023-04-17T10:41:06.639Z,3564.00
2023-04-17T10:42:06.616Z,3684.00
2023-04-17T10:43:06.584Z,3640.00
2023-04-17T10:44:06.552Z,3540.00
2023-04-17T10:45:06.510Z,3312.00
2023-04-17T10:46:06.628Z,3208.00
2023-04-17T10:47:06.453Z,3344.00
2023-04-17T10:48:06.583Z,3416.00
2023-04-17T10:49:06.374Z,2864.00
2023-04-17T10:50:06.344Z,2532.00
2023-04-17T10:51:06.313Z,2512.00
2023-04-17T10:52:06.286Z,2620.00
2023-04-17T10:53:06.265Z,2376.00
2023-04-17T10:54:06.341Z,2084.00
2023-04-17T10:55:06.189Z,1924.00
2023-04-17T10:56:06.152Z,1936.00
2023-04-17T10:57:06.118Z,2032.00
2023-04-17T10:58:06.090Z,3304.00
2023-04-17T10:59:06.104Z,3844.00
2023-04-17T11:00:06.021Z,3972.00
2023-04-17T11:01:06.021Z,3720.00
2023-04-17T11:02:06.015Z,3848.00
2023-04-17T11:03:06.219Z,4180.00
2023-04-17T11:04:05.902Z,4460.00
2023-04-17T11:05:06.030Z,4532.00
2023-04-17T11:06:05.850Z,4684.00
2023-04-17T11:07:05.796Z,4828.00
2023-04-17T11:08:05.780Z,4900.00
2023-04-17T11:09:05.738Z,5016.00
2023-04-17T11:10:05.699Z,5172.00
2023-04-17T11:11:05.665Z,5348.00
2023-04-17T11:12:05.634Z,5364.00
2023-04-17T11:13:05.611Z,5424.00
2023-04-17T11:14:05.575Z,5636.00
2023-04-17T11:15:05.564Z,5720.00
2023-04-17T11:16:05.509Z,5900.00
2023-04-17T11:17:05.508Z,5016.00
2023-04-17T11:18:05.552Z,5104.00
2023-04-17T11:19:05.426Z,5500.00
2023-04-17T11:20:05.412Z,5444.00
2023-04-17T11:21:05.363Z,5392.00
2023-04-17T11:22:05.327Z,5128.00
2023-04-17T11:23:05.299Z,5100.00
2023-04-17T11:24:05.270Z,4664.00
2023-04-17T11:25:05.235Z,5920.00
2023-04-17T11:26:05.217Z,5820.00
2023-04-17T11:27:05.167Z,5752.00
2023-04-17T11:28:05.150Z,6076.00
2023-04-17T11:29:05.116Z,6200.00
2023-04-17T11:30:05.100Z,5404.00
2023-04-17T11:31:05.097Z,6592.00
2023-04-17T11:32:05.035Z,6740.00
2023-04-17T11:33:05.134Z,6636.00
2023-04-17T11:34:04.965Z,6028.00
2023-04-17T11:35:04.932Z,3864.00
2023-04-17T11:36:04.906Z,3804.00
2023-04-17T11:37:04.874Z,4436.00
2023-04-17T11:38:04.837Z,4716.00
2023-04-17T11:39:05.053Z,4008.00
2023-04-17T11:40:04.789Z,4612.00
2023-04-17T11:41:04.758Z,5992.00
2023-04-17T11:42:04.741Z,4332.00
2023-04-17T11:43:04.706Z,3888.00
2023-04-17T11:44:04.676Z,4332.00
2023-04-17T11:45:04.929Z,6112.00
2023-04-17T11:46:04.650Z,7400.00
2023-04-17T11:47:04.583Z,7884.00
2023-04-17T11:48:04.589Z,6824.00
2023-04-17T11:49:04.534Z,6176.00
2023-04-17T11:50:04.486Z,7420.00
2023-04-17T11:51:04.484Z,7708.00
2023-04-17T11:52:04.478Z,7632.00
2023-04-17T11:53:04.402Z,7904.00
2023-04-17T11:54:04.373Z,7880.00
2023-04-17T11:55:04.349Z,6964.00
2023-04-17T11:56:04.318Z,8004.00
2023-04-17T11:57:04.292Z,8188.00
2023-04-17T11:58:04.260Z,8336.00
2023-04-17T11:59:04.224Z,8656.00
2023-04-17T12:00:04.199Z,5688.00
2023-04-17T12:01:04.173Z,5452.00
2023-04-17T12:02:04.263Z,4048.00
2023-04-17T12:03:04.221Z,8608.00
2023-04-17T12:04:04.278Z,4644.00
2023-04-17T12:05:04.178Z,7208.00
2023-04-17T12:06:04.027Z,6252.00
2023-04-17T12:07:04.017Z,5072.00
2023-04-17T12:08:03.966Z,4016.00
2023-04-17T12:09:03.943Z,3308.00
2023-04-17T12:10:03.906Z,2996.00
2023-04-17T12:11:03.884Z,3048.00
2023-04-17T12:12:03.905Z,9904.00
2023-04-17T12:13:03.823Z,3716.00
2023-04-17T12:14:03.796Z,9920.00
2023-04-17T12:15:03.771Z,10472.00
2023-04-17T12:16:03.754Z,9604.00
2023-04-17T12:17:03.703Z,4352.00
2023-04-17T12:18:03.697Z,3428.00
2023-04-17T12:19:03.653Z,3008.00
2023-04-17T12:20:03.618Z,2640.00
2023-04-17T12:21:03.590Z,2428.00
2023-04-17T12:22:03.561Z,2464.00
2023-04-17T12:23:03.547Z,2888.00
2023-04-17T12:24:03.499Z,9880.00
2023-04-17T12:25:03.489Z,10712.00
2023-04-17T12:26:03.454Z,10924.00
2023-04-17T12:27:03.415Z,11136.00
2023-04-17T12:28:03.391Z,10588.00
2023-04-17T12:29:03.368Z,9988.00
2023-04-17T12:30:03.325Z,10324.00
2023-04-17T12:31:03.298Z,10176.00
2023-04-17T12:32:03.436Z,10960.00
2023-04-17T12:33:03.268Z,10372.00
2023-04-17T12:34:03.203Z,10940.00
2023-04-17T12:35:03.188Z,11464.00
2023-04-17T12:36:03.206Z,11584.00
2023-04-17T12:37:03.128Z,11568.00
2023-04-17T12:38:03.084Z,11568.00